createdAt,value
2018-11-21T00:01:08.584Z,34.60
2018-11-21T00:03:37.387Z,29.70
2018-11-21T00:06:06.308Z,32.73
2018-11-21T00:08:34.879Z,38.10
2018-11-21T00:11:03.694Z,33.83
2018-11-21T00:13:32.272Z,35.67
2018-11-21T00:16:01.032Z,35.70
2018-11-21T00:18:29.646Z,28.30
2018-11-21T00:20:58.168Z,29.13
2018-11-21T00:23:27.056Z,28.43
2018-11-21T00:25:55.948Z,31.47
2018-11-21T00:28:25.952Z,34.57
2018-11-21T00:30:54.660Z,29.67
2018-11-21T00:33:23.560Z,31.27
2018-11-21T00:35:52.495Z,31.33
2018-11-21T00:38:21.185Z,29.03
2018-11-21T00:40:49.763Z,27.67
2018-11-21T00:43:18.434Z,32.08
2018-11-21T00:45:47.079Z,30.43
2018-11-21T00:48:15.837Z,28.50
2018-11-21T00:50:44.466Z,27.20
2018-11-21T00:53:13.258Z,27.37
2018-11-21T00:55:42.046Z,30.33
2018-11-21T00:58:10.854Z,28.90
2018-11-21T01:00:39.322Z,29.63
2018-11-21T01:03:07.887Z,29.27
2018-11-21T01:05:36.977Z,30.10
2018-11-21T01:08:05.741Z,27.33
2018-11-21T01:10:34.329Z,30.23
2018-11-21T01:13:03.178Z,29.90
2018-11-21T01:15:31.728Z,28.60
2018-11-21T01:18:00.767Z,32.60
2018-11-21T01:20:29.485Z,33.70
2018-11-21T01:22:57.998Z,31.80
2018-11-21T01:25:27.828Z,29.30
2018-11-21T01:27:56.488Z,32.53
2018-11-21T01:30:25.035Z,29.20
2018-11-21T01:32:53.756Z,29.00
2018-11-21T01:35:22.385Z,30.53
2018-11-21T01:37:51.199Z,29.87
2018-11-21T01:40:19.871Z,28.53
2018-11-21T01:42:49.087Z,24.90
2018-11-21T01:45:17.760Z,31.60
2018-11-21T01:47:46.298Z,27.43
2018-11-21T01:50:15.295Z,27.43
2018-11-21T01:52:44.324Z,31.23
2018-11-21T01:55:12.757Z,28.83
2018-11-21T01:57:41.675Z,29.70
2018-11-21T02:00:11.729Z,32.87
2018-11-21T02:02:47.525Z,28.37
2018-11-21T02:05:16.192Z,32.63
2018-11-21T02:07:45.305Z,28.43
2018-11-21T02:10:13.921Z,33.03
2018-11-21T02:12:42.785Z,25.90
2018-11-21T02:15:11.439Z,30.40
2018-11-21T02:17:39.933Z,34.00
2018-11-21T02:20:09.630Z,33.33
2018-11-21T02:22:38.813Z,27.10
2018-11-21T02:25:07.844Z,28.63
2018-11-21T02:27:36.527Z,28.20
2018-11-21T02:30:05.948Z,29.60
2018-11-21T02:32:35.158Z,29.97
2018-11-21T02:35:04.127Z,28.90
2018-11-21T02:37:33.689Z,29.17
2018-11-21T02:40:02.210Z,29.53
2018-11-21T02:42:30.772Z,30.10
2018-11-21T02:44:59.303Z,31.00
2018-11-21T02:47:28.329Z,32.80
2018-11-21T02:49:56.849Z,27.60
2018-11-21T02:52:25.700Z,33.20
2018-11-21T02:54:54.734Z,34.20
2018-11-21T02:57:24.789Z,35.53
2018-11-21T03:00:19.888Z,32.57
2018-11-21T03:02:49.015Z,31.20
2018-11-21T03:05:18.247Z,31.87
2018-11-21T03:07:50.948Z,29.60
2018-11-21T03:10:22.084Z,27.42
2018-11-21T03:12:50.781Z,30.40
2018-11-21T03:15:20.209Z,29.10
2018-11-21T03:17:48.839Z,28.97
2018-11-21T03:20:17.976Z,27.60
2018-11-21T03:22:47.284Z,29.77
2018-11-21T03:25:16.076Z,30.23
2018-11-21T03:27:44.850Z,28.30
2018-11-21T03:30:13.867Z,29.70
2018-11-21T03:32:42.882Z,27.93
2018-11-21T03:35:12.578Z,33.70
2018-11-21T03:37:41.141Z,32.17
2018-11-21T03:40:11.320Z,29.23
2018-11-21T03:42:40.317Z,32.97
2018-11-21T03:45:10.698Z,30.17
2018-11-21T03:47:39.626Z,30.80
2018-11-21T03:50:09.972Z,28.67
2018-11-21T03:52:39.553Z,35.30
2018-11-21T03:55:08.803Z,37.67
2018-11-21T03:57:37.854Z,32.10
2018-11-21T04:00:08.669Z,32.07
2018-11-21T04:02:38.179Z,30.53
2018-11-21T04:05:08.259Z,30.37
2018-11-21T04:07:37.086Z,33.87
2018-11-21T04:12:38.072Z,32.47
2018-11-21T04:15:08.679Z,31.02
2018-11-21T04:17:37.670Z,29.37
2018-11-21T04:20:06.695Z,29.20
2018-11-21T04:22:35.751Z,28.90
2018-11-21T04:25:04.696Z,34.90
2018-11-21T04:43:05.351Z,43.43
2018-11-21T04:45:33.951Z,41.60
2018-11-21T04:48:02.503Z,40.83
2018-11-21T04:50:30.967Z,34.30
2018-11-21T04:52:59.614Z,32.20
2018-11-21T04:55:28.593Z,33.13
2018-11-21T04:57:57.694Z,42.97
2018-11-21T05:00:26.291Z,34.00
2018-11-21T05:02:54.964Z,32.67
2018-11-21T05:05:23.553Z,26.80
2018-11-21T05:07:52.440Z,29.40
2018-11-21T05:10:21.278Z,38.47
2018-11-21T05:12:50.763Z,35.47
2018-11-21T05:15:20.272Z,29.10
2018-11-21T05:17:48.825Z,30.23
2018-11-21T05:20:17.463Z,29.87
2018-11-21T05:22:46.007Z,30.40
2018-11-21T05:25:14.876Z,27.50
2018-11-21T05:27:43.195Z,32.80
2018-11-21T05:30:12.775Z,30.20
2018-11-21T05:32:41.340Z,50.10
2018-11-21T05:35:10.607Z,37.60
2018-11-21T05:37:39.192Z,31.17
2018-11-21T05:40:09.200Z,29.53
2018-11-21T05:42:38.096Z,30.60
2018-11-21T05:45:07.857Z,32.77
2018-11-21T05:47:36.954Z,29.72
2018-11-21T05:50:07.817Z,31.17
2018-11-21T05:52:36.401Z,32.03
2018-11-21T05:55:05.275Z,29.30
2018-11-21T05:57:33.895Z,27.93
2018-11-21T06:00:02.564Z,30.67
2018-11-21T06:02:31.145Z,31.47
2018-11-21T06:04:59.751Z,32.37
2018-11-21T06:07:28.409Z,31.07
2018-11-21T06:09:56.972Z,40.13
2018-11-21T06:12:25.504Z,33.60
2018-11-21T06:14:54.717Z,33.03
2018-11-21T06:17:23.570Z,29.03
2018-11-21T06:19:58.520Z,31.60
2018-11-21T06:22:27.220Z,31.23
2018-11-21T06:24:55.923Z,30.97
2018-11-21T06:27:24.440Z,29.20
2018-11-21T06:29:53.502Z,30.53
2018-11-21T06:32:22.466Z,32.23
2018-11-21T06:34:51.481Z,30.77
2018-11-21T06:37:20.534Z,27.10
2018-11-21T06:48:02.144Z,35.00
2018-11-21T06:50:51.159Z,32.30
2018-11-21T07:03:03.224Z,31.90
2018-11-21T07:06:08.894Z,38.83
2018-11-21T07:29:34.657Z,36.23
2018-11-21T07:32:07.725Z,37.00
2018-11-21T07:34:54.113Z,45.50
2018-11-21T07:37:36.333Z,37.43
2018-11-21T07:40:07.658Z,34.23
2018-11-21T07:42:37.551Z,35.67
2018-11-21T07:45:08.982Z,38.17
2018-11-21T07:47:39.066Z,31.30
2018-11-21T07:50:21.565Z,30.40
2018-11-21T07:52:51.243Z,38.08
2018-11-21T07:55:24.673Z,36.60
2018-11-21T07:58:15.712Z,35.60
2018-11-21T08:01:26.653Z,32.67
2018-11-21T08:04:05.023Z,55.90
2018-11-21T08:06:40.700Z,41.50
2018-11-21T08:09:29.938Z,52.53
2018-11-21T08:12:30.366Z,57.17
2018-11-21T08:15:24.431Z,51.73
2018-11-21T08:18:11.047Z,50.73
2018-11-21T08:21:01.099Z,47.13
2018-11-21T08:23:55.422Z,47.10
2018-11-21T08:26:43.779Z,39.30
2018-11-21T08:29:13.035Z,48.98
2018-11-21T08:31:42.592Z,41.40
2018-11-21T08:34:11.921Z,39.40
2018-11-21T08:36:43.402Z,37.80
2018-11-21T08:39:12.295Z,35.05
2018-11-21T08:41:41.383Z,38.93
2018-11-21T08:44:10.740Z,35.03
2018-11-21T08:46:40.707Z,34.30
2018-11-21T08:49:10.875Z,38.43
2018-11-21T08:51:44.612Z,37.33
2018-11-21T08:54:13.816Z,35.90
2018-11-21T08:56:42.797Z,43.60
2018-11-21T08:59:11.548Z,49.63
2018-11-21T09:01:40.369Z,40.37
2018-11-21T09:04:09.117Z,38.87
2018-11-21T09:06:37.823Z,43.87
2018-11-21T09:09:09.158Z,37.80
2018-11-21T09:11:38.052Z,44.00
2018-11-21T09:14:06.860Z,41.20
2018-11-21T09:16:35.349Z,54.03
2018-11-21T09:19:04.030Z,45.43
2018-11-21T09:21:33.143Z,36.27
2018-11-21T09:24:01.770Z,42.43
2018-11-21T09:26:31.302Z,44.90
2018-11-21T09:29:00.230Z,37.47
2018-11-21T09:31:29.633Z,35.30
2018-11-21T09:33:59.203Z,38.80
2018-11-21T09:36:27.831Z,41.60
2018-11-21T09:38:56.821Z,41.67
2018-11-21T09:41:26.794Z,41.70
2018-11-21T09:43:55.526Z,41.13
2018-11-21T09:46:25.289Z,48.27
2018-11-21T09:48:54.473Z,45.30
2018-11-21T09:51:25.298Z,45.50
2018-11-21T09:53:54.137Z,36.13
2018-11-21T09:56:23.213Z,46.33
2018-11-21T09:58:52.060Z,46.10
2018-11-21T10:01:56.868Z,45.83
2018-11-21T10:04:26.118Z,48.67
2018-11-21T10:06:55.077Z,55.13
2018-11-21T10:09:30.610Z,43.63
2018-11-21T10:11:59.491Z,58.33
2018-11-21T10:14:29.557Z,46.50
2018-11-21T10:16:58.232Z,51.77
2018-11-21T10:19:26.890Z,50.50
2018-11-21T10:21:55.763Z,52.33
2018-11-21T10:24:24.487Z,53.33
2018-11-21T10:26:53.514Z,51.20
2018-11-21T10:29:22.337Z,43.47
2018-11-21T10:31:52.084Z,36.80
2018-11-21T10:34:21.829Z,44.00
2018-11-21T10:36:50.846Z,39.70
2018-11-21T10:39:19.575Z,45.03
2018-11-21T10:41:48.278Z,41.13
2018-11-21T10:44:17.202Z,39.60
2018-11-21T10:46:46.003Z,38.93
2018-11-21T10:49:14.715Z,43.70
2018-11-21T10:51:44.081Z,39.73
2018-11-21T10:54:12.812Z,42.62
2018-11-21T10:56:42.007Z,38.93
2018-11-21T10:59:10.863Z,41.20
2018-11-21T11:01:57.505Z,46.73
2018-11-21T11:04:46.383Z,43.20
2018-11-21T11:07:39.989Z,37.90
2018-11-21T11:10:28.790Z,40.57
2018-11-21T11:13:15.434Z,41.77
2018-11-21T11:15:56.227Z,43.40
2018-11-21T11:18:36.077Z,39.03
2018-11-21T11:21:23.094Z,46.23
2018-11-21T11:24:14.064Z,38.97
2018-11-21T11:27:07.705Z,45.20
2018-11-21T11:33:30.374Z,42.87
2018-11-21T11:36:16.997Z,44.00
2018-11-21T11:39:14.119Z,44.87
2018-11-21T11:42:09.869Z,47.60
2018-11-21T11:45:00.774Z,46.97
2018-11-21T11:47:51.161Z,43.33
2018-11-21T11:50:33.202Z,45.70
2018-11-21T11:53:27.262Z,48.27
2018-11-21T11:56:18.570Z,47.33
2018-11-21T11:59:06.734Z,46.03
2018-11-21T12:01:53.678Z,47.50
2018-11-21T12:04:44.123Z,48.37
2018-11-21T12:07:38.005Z,51.10
2018-11-21T12:10:37.707Z,47.87
2018-11-21T12:13:25.516Z,54.87
2018-11-21T12:16:26.610Z,49.27
2018-11-21T12:19:13.056Z,46.47
2018-11-21T12:22:06.698Z,44.93
2018-11-21T12:25:10.999Z,58.57
2018-11-21T12:27:50.159Z,51.40
2018-11-21T12:30:38.060Z,48.73
2018-11-21T12:33:44.413Z,48.37
2018-11-21T12:36:47.881Z,51.83
2018-11-21T12:39:35.209Z,47.97
2018-11-21T12:42:32.956Z,48.90
2018-11-21T12:45:19.415Z,46.47
2018-11-21T12:47:54.790Z,45.70
2018-11-21T12:50:41.917Z,44.50
2018-11-21T12:53:42.035Z,42.03
2018-11-21T12:56:28.406Z,44.37
2018-11-21T12:59:16.272Z,41.60
2018-11-21T13:01:54.423Z,42.07
2018-11-21T13:04:45.818Z,42.77
2018-11-21T13:07:37.215Z,45.10
2018-11-21T13:10:24.371Z,47.17
2018-11-21T13:13:24.035Z,46.03
2018-11-21T13:16:28.803Z,35.50
2018-11-21T13:19:19.370Z,34.93
2018-11-21T13:22:18.809Z,50.03
2018-11-21T13:25:16.249Z,39.17
2018-11-21T13:28:02.622Z,41.43
2018-11-21T13:31:03.358Z,38.93
2018-11-21T13:33:57.899Z,36.63
2018-11-21T13:36:44.495Z,39.07
2018-11-21T13:39:38.858Z,37.30
2018-11-21T13:42:30.881Z,38.73
2018-11-21T13:45:28.255Z,42.27
2018-11-21T13:48:14.357Z,39.80
2018-11-21T13:51:01.161Z,37.93
2018-11-21T13:53:47.507Z,37.47
2018-11-21T13:56:16.286Z,36.17
2018-11-21T13:58:46.187Z,39.43
2018-11-21T14:01:15.267Z,36.60
2018-11-21T14:03:45.069Z,42.50
2018-11-21T14:06:16.661Z,35.10
2018-11-21T14:08:46.428Z,39.17
2018-11-21T14:11:15.798Z,38.37
2018-11-21T14:13:44.807Z,38.33
2018-11-21T14:16:19.987Z,35.70
2018-11-21T14:18:51.995Z,40.87
2018-11-21T14:21:20.792Z,36.90
2018-11-21T14:23:50.630Z,40.87
2018-11-21T14:26:19.757Z,41.43
2018-11-21T14:28:48.576Z,47.53
2018-11-21T14:31:17.767Z,43.00
2018-11-21T14:33:47.313Z,37.38
2018-11-21T14:36:27.998Z,36.73
2018-11-21T14:38:58.946Z,38.40
2018-11-21T14:41:28.235Z,41.07
2018-11-21T14:43:57.119Z,37.35
2018-11-21T14:46:25.909Z,40.60
2018-11-21T14:48:54.788Z,35.37
2018-11-21T14:51:23.914Z,50.20
2018-11-21T14:53:52.596Z,36.20
2018-11-21T14:56:29.412Z,40.10
2018-11-21T14:58:56.543Z,42.97
2018-11-21T15:01:26.101Z,36.40
2018-11-21T15:03:55.011Z,35.40
2018-11-21T15:06:24.949Z,36.60
2018-11-21T15:08:54.265Z,36.97
2018-11-21T15:11:23.166Z,36.30
2018-11-21T15:13:52.421Z,40.07
2018-11-21T15:16:21.131Z,36.83
2018-11-21T15:18:50.057Z,38.10
2018-11-21T15:21:18.745Z,39.97
2018-11-21T15:23:47.394Z,38.43
2018-11-21T15:26:16.611Z,38.90
2018-11-21T15:28:45.536Z,38.23
2018-11-21T15:31:14.230Z,37.03
2018-11-21T15:33:43.319Z,34.83
2018-11-21T15:36:15.098Z,38.17
2018-11-21T15:38:45.775Z,37.63
2018-11-21T15:41:14.712Z,40.20
2018-11-21T15:43:43.726Z,37.70
2018-11-21T15:46:14.193Z,35.70
2018-11-21T15:48:43.260Z,34.60
2018-11-21T15:51:12.246Z,43.10
2018-11-21T15:53:41.574Z,35.17
2018-11-21T15:56:10.734Z,39.73
2018-11-21T15:58:39.497Z,40.08
2018-11-21T16:01:10.556Z,37.17
2018-11-21T16:03:39.591Z,42.13
2018-11-21T16:06:08.609Z,39.10
2018-11-21T16:08:37.639Z,42.10
2018-11-21T16:11:06.743Z,38.07
2018-11-21T16:13:35.914Z,38.10
2018-11-21T16:16:04.966Z,37.00
2018-11-21T16:18:34.087Z,45.70
2018-11-21T16:21:03.643Z,37.95
2018-11-21T16:23:33.116Z,42.90
2018-11-21T16:26:02.072Z,40.43
2018-11-21T16:28:31.761Z,39.63
2018-11-21T16:31:00.624Z,41.95
2018-11-21T16:33:30.828Z,38.23
2018-11-21T16:36:00.406Z,40.63
2018-11-21T16:38:29.590Z,44.70
2018-11-21T16:40:59.119Z,38.20
2018-11-21T16:43:28.072Z,36.47
2018-11-21T16:45:58.016Z,40.33
2018-11-21T16:48:26.826Z,36.00
2018-11-21T16:50:57.072Z,39.10
2018-11-21T16:53:26.349Z,33.73
2018-11-21T16:55:57.834Z,36.13
2018-11-21T16:58:27.090Z,35.13
2018-11-21T17:00:55.969Z,35.90
2018-11-21T17:03:24.857Z,34.57
2018-11-21T17:05:54.023Z,35.53
2018-11-21T17:08:23.205Z,33.90
2018-11-21T17:10:52.607Z,32.07
2018-11-21T17:13:21.852Z,34.60
2018-11-21T17:15:50.432Z,35.37
2018-11-21T17:18:19.213Z,36.50
2018-11-21T17:20:48.336Z,37.00
2018-11-21T17:23:17.796Z,33.58
2018-11-21T17:25:54.985Z,37.00
2018-11-21T17:28:24.460Z,38.47
2018-11-21T17:30:53.431Z,33.07
2018-11-21T17:33:22.290Z,33.57
2018-11-21T17:35:51.590Z,33.47
2018-11-21T17:38:22.873Z,38.70
2018-11-21T17:40:51.827Z,36.83
2018-11-21T17:43:20.596Z,50.80
2018-11-21T17:45:49.923Z,38.57
2018-11-21T17:48:19.588Z,36.73
2018-11-21T17:50:48.832Z,37.90
2018-11-21T17:53:17.702Z,36.63
2018-11-21T17:55:49.420Z,37.13
2018-11-21T17:58:18.047Z,36.47
2018-11-21T18:00:46.964Z,38.90
2018-11-21T18:03:15.841Z,33.47
2018-11-21T18:05:44.662Z,33.00
2018-11-21T18:08:13.519Z,35.73
2018-11-21T18:10:42.836Z,34.10
2018-11-21T18:13:11.587Z,35.53
2018-11-21T18:15:40.379Z,39.05
2018-11-21T18:18:09.198Z,33.67
2018-11-21T18:20:38.073Z,33.90
2018-11-21T18:23:07.526Z,33.20
2018-11-21T18:25:38.174Z,35.63
2018-11-21T18:28:07.178Z,36.70
2018-11-21T18:30:35.849Z,33.07
2018-11-21T18:33:05.527Z,35.60
2018-11-21T18:35:35.654Z,37.13
2018-11-21T18:38:02.604Z,43.52
2018-11-21T18:40:32.337Z,34.10
2018-11-21T18:43:02.332Z,36.20
2018-11-21T18:45:34.686Z,38.77
2018-11-21T18:48:03.932Z,40.03
2018-11-21T18:50:33.001Z,38.47
2018-11-21T18:53:08.996Z,35.10
2018-11-21T18:55:40.277Z,32.27
2018-11-21T18:58:30.249Z,31.50
2018-11-21T19:01:03.109Z,37.50
2018-11-21T19:03:33.835Z,33.37
2018-11-21T19:06:02.462Z,32.93
2018-11-21T19:08:31.222Z,37.90
2018-11-21T19:10:59.865Z,34.40
2018-11-21T19:13:29.699Z,36.67
2018-11-21T19:15:58.844Z,32.50
2018-11-21T19:18:27.892Z,34.93
2018-11-21T19:20:56.470Z,34.87
2018-11-21T19:23:25.449Z,31.73
2018-11-21T19:25:55.210Z,33.70
2018-11-21T19:28:24.286Z,34.50
2018-11-21T19:30:53.676Z,35.20
2018-11-21T19:33:22.378Z,35.13
2018-11-21T19:35:50.940Z,33.87
2018-11-21T19:38:20.140Z,34.93
2018-11-21T19:40:48.944Z,34.20
2018-11-21T19:43:17.945Z,36.40
2018-11-21T19:45:46.812Z,33.10
2018-11-21T19:48:15.779Z,35.47
2018-11-21T19:50:44.754Z,30.87
2018-11-21T19:53:14.681Z,31.73
2018-11-21T19:55:44.246Z,33.97
2018-11-21T19:58:13.359Z,34.57
2018-11-21T20:00:45.516Z,38.13
2018-11-21T20:03:14.444Z,36.33
2018-11-21T20:05:43.622Z,31.87
2018-11-21T20:08:12.589Z,35.00
2018-11-21T20:10:41.611Z,30.33
2018-11-21T20:13:10.303Z,31.40
2018-11-21T20:15:39.530Z,33.90
2018-11-21T20:18:08.253Z,30.80
2018-11-21T20:20:37.656Z,33.67
2018-11-21T20:23:06.649Z,31.13
2018-11-21T20:25:35.062Z,31.50
2018-11-21T20:28:04.055Z,36.90
2018-11-21T20:30:34.797Z,32.03
2018-11-21T20:34:16.011Z,35.47
2018-11-21T20:36:45.822Z,39.67
2018-11-21T20:39:15.550Z,35.77
2018-11-21T20:41:44.716Z,29.17
2018-11-21T20:44:14.116Z,29.67
2018-11-21T20:46:43.145Z,31.30
2018-11-21T20:49:12.708Z,46.43
2018-11-21T20:51:41.734Z,48.67
2018-11-21T20:54:14.366Z,36.60
2018-11-21T20:56:44.019Z,45.60
2018-11-21T21:02:04.734Z,36.37
2018-11-21T21:04:35.584Z,32.17
2018-11-21T21:07:04.576Z,40.43
2018-11-21T21:09:33.397Z,37.40
2018-11-21T21:12:02.883Z,33.70
2018-11-21T21:14:32.126Z,35.20
2018-11-21T21:17:02.086Z,34.47
2018-11-21T21:19:30.935Z,32.50
2018-11-21T21:22:00.338Z,31.53
2018-11-21T21:24:29.655Z,34.30
2018-11-21T21:26:59.207Z,36.43
2018-11-21T21:29:28.358Z,35.43
2018-11-21T21:31:57.257Z,35.83
2018-11-21T21:34:26.294Z,32.53
2018-11-21T21:36:56.075Z,34.93
2018-11-21T21:39:26.470Z,33.27
2018-11-21T21:41:55.605Z,32.37
2018-11-21T21:44:24.347Z,36.50
2018-11-21T21:46:53.422Z,36.43
2018-11-21T21:49:22.489Z,37.78
2018-11-21T21:51:51.166Z,39.37
2018-11-21T21:54:19.934Z,37.17
2018-11-21T21:56:49.154Z,33.97
2018-11-21T21:59:17.869Z,41.47
2018-11-21T22:01:46.691Z,36.93
2018-11-21T22:04:15.705Z,33.17
2018-11-21T22:06:45.395Z,33.23
2018-11-21T22:09:14.502Z,29.53
2018-11-21T22:11:43.180Z,30.33
2018-11-21T22:14:12.125Z,33.60
2018-11-21T22:16:40.962Z,29.73
2018-11-21T22:19:10.167Z,31.93
2018-11-21T22:21:39.131Z,34.78
2018-11-21T22:24:07.862Z,40.13
2018-11-21T22:26:36.956Z,36.40
2018-11-21T22:29:07.175Z,35.23
2018-11-21T22:31:36.573Z,34.95
2018-11-21T22:34:05.592Z,33.40
2018-11-21T22:36:34.196Z,30.43
2018-11-21T22:39:02.774Z,30.60
2018-11-21T22:41:31.613Z,31.90
2018-11-21T22:44:01.294Z,34.35
2018-11-21T22:46:30.422Z,35.80
2018-11-21T22:48:59.099Z,33.20
2018-11-21T22:51:27.718Z,36.10
2018-11-21T22:53:56.837Z,37.90
2018-11-21T22:56:25.573Z,39.03
2018-11-21T22:58:54.652Z,35.10
2018-11-21T23:01:31.449Z,33.93
2018-11-21T23:04:00.187Z,31.82
2018-11-21T23:06:29.093Z,36.70
2018-11-21T23:08:57.824Z,38.63
2018-11-21T23:11:26.421Z,37.80
2018-11-21T23:13:55.084Z,34.60
2018-11-21T23:16:24.096Z,30.80
2018-11-21T23:18:53.520Z,35.00
2018-11-21T23:21:22.493Z,33.40
2018-11-21T23:23:51.453Z,37.20
2018-11-21T23:26:20.845Z,41.13
2018-11-21T23:28:49.890Z,33.47
2018-11-21T23:31:18.924Z,39.47
2018-11-21T23:33:47.980Z,37.13
2018-11-21T23:36:17.646Z,38.97
2018-11-21T23:38:46.847Z,38.57
2018-11-21T23:41:16.010Z,37.30
2018-11-21T23:43:44.710Z,34.43
2018-11-21T23:46:14.066Z,39.60
2018-11-21T23:48:43.274Z,35.57
2018-11-21T23:51:42.784Z,42.17
2018-11-21T23:54:11.875Z,35.33
2018-11-21T23:56:40.776Z,37.33
2018-11-21T23:59:09.551Z,35.97
